aviador You're here:

LFSO Decoded Metar

NANCY OCHEY in FRANCE
Report Time2017-08-20 19:00:00
UTC Time2017-08-20 19:12:33
Flight Rules vfr VFR
Wind290° at 02 kt
W.Decomp.*RWY 20: 2.0 kt RCW
W.Rank290° ranks 20
Current wind is below 290° avg. (5.9)
Visibility9999 m
Phenomena:N/A
Clouds:N/A
Expected CloudBase > 2,400 ft AGL from Temp-Dew spread
CeilingNone
Temp15°C (ISA +2)
Dew Point09°C (68% RH)
AAT14.1°C
QNH1025 hPa
Density Alt1,171 ft
Elevation1,148 ft
Report Wrong Elevation
Raw Report
LFSO 201900Z AUTO 29002KT CAVOK 15/09 Q1025=

Extra information for LFSO:More info

Metar Taf Metar & Taf Last 4 Metars F.Rules Stats Wind Profile Meteogram Temp Stats Airport Information Weather charts Add Link Nearby VenuesMetar ALERT Operation Metar Decoded Social comments